CheckWX is a tool to help pilots better visualize weather data.  It is not intended as a substitute for an official pre-flight weather briefing.

21:22:58 UTC

KPSK METAR
New River Valley Airport
Dublin, Virginia, USA
Current

28 mins ago

KPSK 232055Z AUTO 12005KT 10SM -DZ OVC005 04/04 A3013 RMK AO2 T00410037
Observed
Feb-23 @ 20:55 UTC
Wind
  • 120° at 5 KTS
Visibility
10 SM
Flight Rules
IFR
Conditions
Light Drizzle
Cloud Levels
  • Overcast at 500' AGL
Temperature
C / 39°F
Dewpoint
C / 39°F
Humidity
100%
Altimeter
30.13" Hg
Pressure
1020.32 hPa
Previous

48 mins ago

KPSK 232035Z AUTO 11006KT 10SM RA OVC007 04/04 A3015 RMK AO2 T00410035
Observed
Feb-23 @ 20:35 UTC
Wind
  • 110° at 6 KTS
Visibility
10 SM
Flight Rules
IFR
Conditions
Rain
Cloud Levels
  • Overcast at 700' AGL
Temperature
C / 39°F
Dewpoint
C / 39°F
Humidity
100%
Altimeter
30.15" Hg
Pressure
1021.02 hPa
Previous

1 hour ago

KPSK 232015Z AUTO 09005KT 10SM OVC007 04/04 A3017 RMK AO2 T00430036
Observed
Feb-23 @ 20:15 UTC
Wind
  • 090° at 5 KTS
Visibility
10 SM
Flight Rules
IFR
Cloud Levels
  • Overcast at 700' AGL
Temperature
C / 39°F
Dewpoint
C / 39°F
Humidity
100%
Altimeter
30.17" Hg
Pressure
1021.72 hPa